createdAt,value
2023-03-22T00:01:54.728Z,100732.00
2023-03-22T00:04:21.504Z,100735.00
2023-03-22T00:06:48.352Z,100739.00
2023-03-22T00:09:15.734Z,100733.00
2023-03-22T00:11:42.547Z,100734.00
2023-03-22T00:14:09.805Z,100722.00
2023-03-22T00:16:36.570Z,100729.00
2023-03-22T00:19:03.409Z,100731.00
2023-03-22T00:21:30.170Z,100731.00
2023-03-22T00:23:56.886Z,100722.00
2023-03-22T00:26:23.610Z,100716.00
2023-03-22T00:28:50.399Z,100721.00
2023-03-22T00:31:17.193Z,100725.00
2023-03-22T00:33:44.011Z,100715.00
2023-03-22T00:36:12.106Z,100709.00
2023-03-22T00:38:43.964Z,100710.00
2023-03-22T00:41:17.333Z,100704.00
2023-03-22T00:43:45.590Z,100709.00
2023-03-22T00:46:14.699Z,100702.00
2023-03-22T00:48:43.252Z,100701.00
2023-03-22T00:51:10.755Z,100710.00
2023-03-22T00:53:39.324Z,100693.00
2023-03-22T00:56:08.343Z,100693.00
2023-03-22T00:58:35.786Z,100697.00
2023-03-22T01:01:02.580Z,100705.00
2023-03-22T01:03:29.428Z,100709.00
2023-03-22T01:05:56.321Z,100705.00
2023-03-22T01:08:24.415Z,100700.00
2023-03-22T01:10:52.001Z,100705.00
2023-03-22T01:13:18.744Z,100702.00
2023-03-22T01:15:47.730Z,100704.00
2023-03-22T01:18:14.881Z,100693.00
2023-03-22T01:20:42.128Z,100695.00
2023-03-22T01:23:09.144Z,100682.00
2023-03-22T01:25:35.951Z,100684.00
2023-03-22T01:28:02.767Z,100698.00
2023-03-22T01:30:30.296Z,100691.00
2023-03-22T01:32:57.229Z,100694.00
2023-03-22T01:35:24.048Z,100674.00
2023-03-22T01:37:50.862Z,100670.00
2023-03-22T01:40:17.928Z,100661.00
2023-03-22T01:42:44.890Z,100658.00
2023-03-22T01:45:14.309Z,100660.00
2023-03-22T01:47:53.282Z,100662.00
2023-03-22T01:50:21.330Z,100651.00
2023-03-22T01:52:50.909Z,100658.00
2023-03-22T01:55:22.691Z,100651.00
2023-03-22T01:57:50.809Z,100655.00
2023-03-22T02:00:18.817Z,100655.00
2023-03-22T02:02:51.258Z,100653.00
2023-03-22T02:05:19.689Z,100652.00
2023-03-22T02:07:46.646Z,100643.00
2023-03-22T02:10:18.107Z,100646.00
2023-03-22T02:13:34.122Z,100656.00
2023-03-22T02:16:12.066Z,100642.00
2023-03-22T02:19:17.057Z,100643.00
2023-03-22T02:22:23.150Z,100651.00
2023-03-22T02:25:20.546Z,100650.00
2023-03-22T02:28:29.157Z,100645.00
2023-03-22T02:31:27.973Z,100650.00
2023-03-22T02:34:20.028Z,100641.00
2023-03-22T02:37:07.531Z,100634.00
2023-03-22T02:40:12.216Z,100642.00
2023-03-22T02:43:09.282Z,100637.00
2023-03-22T02:46:01.519Z,100632.00
2023-03-22T02:48:49.291Z,100622.00
2023-03-22T02:51:29.948Z,100628.00
2023-03-22T02:54:34.284Z,100636.00
2023-03-22T02:57:11.823Z,100632.00
2023-03-22T02:59:41.766Z,100639.00
2023-03-22T03:02:13.728Z,100628.00
2023-03-22T03:04:47.821Z,100632.00
2023-03-22T03:07:21.987Z,100635.00
2023-03-22T03:09:50.331Z,100631.00
2023-03-22T03:12:23.521Z,100611.00
2023-03-22T03:14:50.428Z,100615.00
2023-03-22T03:18:04.308Z,100619.00
2023-03-22T03:21:00.264Z,100623.00
2023-03-22T03:24:07.973Z,100624.00
2023-03-22T03:27:27.386Z,100630.00
2023-03-22T03:30:17.700Z,100643.00
2023-03-22T03:32:54.503Z,100633.00
2023-03-22T03:35:45.968Z,100640.00
2023-03-22T03:38:20.416Z,100634.00
2023-03-22T03:41:00.834Z,100634.00
2023-03-22T03:43:28.048Z,100626.00
2023-03-22T03:45:55.751Z,100628.00
2023-03-22T03:48:28.459Z,100625.00
2023-03-22T03:50:57.776Z,100638.00
2023-03-22T03:53:24.790Z,100644.00
2023-03-22T03:55:51.657Z,100622.00
2023-03-22T03:58:18.431Z,100622.00
2023-03-22T04:00:46.883Z,100623.00
2023-03-22T04:03:14.371Z,100628.00
2023-03-22T04:05:41.384Z,100628.00
2023-03-22T04:08:08.917Z,100617.00
2023-03-22T04:10:36.065Z,100620.00
2023-03-22T04:13:02.791Z,100619.00
2023-03-22T04:15:29.756Z,100629.00
2023-03-22T04:17:56.723Z,100627.00
2023-03-22T04:20:23.719Z,100626.00
2023-03-22T04:22:50.517Z,100618.00
2023-03-22T04:25:18.242Z,100629.00
2023-03-22T04:27:50.952Z,100627.00
2023-03-22T04:30:22.167Z,100628.00
2023-03-22T04:32:49.890Z,100631.00
2023-03-22T04:35:17.254Z,100632.00
2023-03-22T04:37:45.758Z,100627.00
2023-03-22T04:40:17.105Z,100630.00
2023-03-22T04:42:45.538Z,100635.00
2023-03-22T04:45:13.630Z,100632.00
2023-03-22T04:47:40.756Z,100624.00
2023-03-22T04:50:09.214Z,100621.00
2023-03-22T04:52:36.151Z,100623.00
2023-03-22T04:55:03.004Z,100615.00
2023-03-22T04:57:30.750Z,100615.00
2023-03-22T04:59:57.515Z,100612.00
2023-03-22T05:02:24.330Z,100613.00
2023-03-22T05:04:51.471Z,100606.00
2023-03-22T05:07:18.257Z,100597.00
2023-03-22T05:09:44.993Z,100599.00
2023-03-22T05:12:12.309Z,100598.00
2023-03-22T05:14:39.053Z,100595.00
2023-03-22T05:17:05.874Z,100586.00
2023-03-22T05:19:33.122Z,100593.00
2023-03-22T05:22:01.909Z,100583.00
2023-03-22T05:24:30.576Z,100582.00
2023-03-22T05:27:00.992Z,100586.00
2023-03-22T05:29:28.412Z,100591.00
2023-03-22T05:31:55.405Z,100592.00
2023-03-22T05:34:22.257Z,100595.00
2023-03-22T05:36:51.474Z,100606.00
2023-03-22T05:39:18.417Z,100590.00
2023-03-22T05:41:46.038Z,100596.00
2023-03-22T05:44:12.841Z,100592.00
2023-03-22T05:46:39.629Z,100588.00
2023-03-22T05:49:06.375Z,100586.00
2023-03-22T05:51:33.133Z,100589.00
2023-03-22T05:54:00.022Z,100586.00
2023-03-22T05:56:26.784Z,100586.00
2023-03-22T05:58:53.804Z,100581.00
2023-03-22T06:01:21.449Z,100589.00
2023-03-22T06:03:50.136Z,100578.00
2023-03-22T06:06:17.029Z,100576.00
2023-03-22T06:08:43.893Z,100574.00
2023-03-22T06:11:10.904Z,100571.00
2023-03-22T06:13:38.484Z,100581.00
2023-03-22T06:16:05.993Z,100569.00
2023-03-22T06:18:33.498Z,100574.00
2023-03-22T06:21:00.851Z,100578.00
2023-03-22T06:23:28.442Z,100572.00
2023-03-22T06:25:55.470Z,100579.00
2023-03-22T06:28:22.219Z,100580.00
2023-03-22T06:30:49.021Z,100575.00
2023-03-22T06:33:15.918Z,100579.00
2023-03-22T06:35:42.805Z,100575.00
2023-03-22T06:38:09.786Z,100576.00
2023-03-22T06:40:36.951Z,100580.00
2023-03-22T06:43:06.928Z,100579.00
2023-03-22T06:45:33.768Z,100587.00
2023-03-22T06:48:01.280Z,100588.00
2023-03-22T06:50:29.242Z,100590.00
2023-03-22T06:52:56.433Z,100590.00
2023-03-22T06:55:25.018Z,100591.00
2023-03-22T06:57:51.755Z,100586.00
2023-03-22T07:00:19.007Z,100586.00
2023-03-22T07:02:45.778Z,100597.00
2023-03-22T07:05:12.542Z,100590.00
2023-03-22T07:07:39.360Z,100582.00
2023-03-22T07:10:08.013Z,100590.00
2023-03-22T07:12:35.215Z,100600.00
2023-03-22T07:15:02.905Z,100597.00
2023-03-22T07:17:29.912Z,100590.00
2023-03-22T07:19:56.897Z,100596.00
2023-03-22T07:22:24.968Z,100601.00
2023-03-22T07:24:57.283Z,100594.00
2023-03-22T07:27:25.303Z,100599.00
2023-03-22T07:29:52.258Z,100577.00
2023-03-22T07:32:19.197Z,100583.00
2023-03-22T07:34:46.398Z,100593.00
2023-03-22T07:37:13.811Z,100588.00
2023-03-22T07:39:40.567Z,100581.00
2023-03-22T07:42:07.361Z,100572.00
2023-03-22T07:44:34.127Z,100586.00
2023-03-22T07:47:00.990Z,100581.00
2023-03-22T07:49:28.234Z,100570.00
2023-03-22T07:51:55.193Z,100566.00
2023-03-22T07:54:32.991Z,100575.00
2023-03-22T07:57:01.279Z,100577.00
2023-03-22T07:59:28.064Z,100562.00
2023-03-22T08:01:54.961Z,100559.00
2023-03-22T08:04:22.542Z,100564.00
2023-03-22T08:06:49.869Z,100557.00
2023-03-22T08:09:17.303Z,100558.00
2023-03-22T08:11:44.638Z,100557.00
2023-03-22T08:14:11.600Z,100557.00
2023-03-22T08:16:38.529Z,100554.00
2023-03-22T08:19:05.660Z,100552.00
2023-03-22T08:21:32.518Z,100565.00
2023-03-22T08:23:59.266Z,100559.00
2023-03-22T08:26:26.149Z,100565.00
2023-03-22T08:28:53.182Z,100558.00
2023-03-22T08:31:20.191Z,100553.00
2023-03-22T08:33:47.315Z,100545.00
2023-03-22T08:36:18.581Z,100545.00
2023-03-22T08:38:45.567Z,100537.00
2023-03-22T08:41:13.222Z,100547.00
2023-03-22T08:43:40.251Z,100544.00
2023-03-22T08:46:07.174Z,100533.00
2023-03-22T08:48:35.858Z,100540.00
2023-03-22T08:51:02.688Z,100540.00
2023-03-22T08:53:29.583Z,100538.00
2023-03-22T08:55:58.029Z,100525.00
2023-03-22T09:01:14.066Z,100520.00
2023-03-22T09:03:41.389Z,100520.00
2023-03-22T09:06:11.764Z,100520.00
2023-03-22T09:08:38.984Z,100507.00
2023-03-22T09:11:09.676Z,100509.00
2023-03-22T09:13:36.875Z,100515.00
2023-03-22T09:16:09.866Z,100504.00
2023-03-22T09:18:41.050Z,100504.00
2023-03-22T09:21:09.072Z,100507.00
2023-03-22T09:23:37.960Z,100500.00
2023-03-22T09:26:08.517Z,100502.00
2023-03-22T09:28:36.592Z,100495.00
2023-03-22T09:31:09.996Z,100508.00
2023-03-22T09:33:38.675Z,100489.00
2023-03-22T09:36:05.916Z,100494.00
2023-03-22T09:38:33.860Z,100496.00
2023-03-22T09:41:11.016Z,100486.00
2023-03-22T09:43:46.643Z,100489.00
2023-03-22T09:46:29.987Z,100492.00
2023-03-22T09:49:01.147Z,100499.00
2023-03-22T09:51:42.401Z,100500.00
2023-03-22T09:54:19.946Z,100484.00
2023-03-22T09:57:34.750Z,100480.00
2023-03-22T10:00:38.150Z,100482.00
2023-03-22T10:04:03.307Z,100473.00
2023-03-22T10:06:31.424Z,100480.00
2023-03-22T10:09:54.813Z,100485.00
2023-03-22T10:12:57.625Z,100477.00
2023-03-22T10:15:43.164Z,100488.00
2023-03-22T10:18:21.710Z,100480.00
2023-03-22T10:21:11.341Z,100468.00
2023-03-22T10:24:07.717Z,100474.00
2023-03-22T10:26:42.151Z,100462.00
2023-03-22T10:29:20.815Z,100464.00
2023-03-22T10:31:47.635Z,100463.00
2023-03-22T10:34:28.018Z,100454.00
2023-03-22T10:36:55.894Z,100452.00
2023-03-22T10:39:33.641Z,100451.00
2023-03-22T10:42:18.902Z,100437.00
2023-03-22T10:45:16.845Z,100432.00
2023-03-22T10:48:08.017Z,100435.00
2023-03-22T10:50:43.242Z,100429.00
2023-03-22T10:53:40.650Z,100425.00
2023-03-22T10:56:15.824Z,100423.00
2023-03-22T10:58:43.236Z,100418.00
2023-03-22T11:01:29.199Z,100411.00
2023-03-22T11:04:17.283Z,100423.00
2023-03-22T11:06:55.653Z,100398.00
2023-03-22T11:09:24.766Z,100424.00
2023-03-22T11:11:58.471Z,100411.00
2023-03-22T11:14:32.326Z,100413.00
2023-03-22T11:17:14.184Z,100411.00
2023-03-22T11:19:52.686Z,100403.00
2023-03-22T11:22:20.441Z,100413.00
2023-03-22T11:24:47.604Z,100407.00
2023-03-22T11:27:24.507Z,100403.00
2023-03-22T11:30:21.113Z,100404.00
2023-03-22T11:32:49.325Z,100399.00
2023-03-22T11:35:27.107Z,100408.00
2023-03-22T11:37:56.406Z,100401.00
2023-03-22T11:40:36.591Z,100393.00
2023-03-22T11:43:28.265Z,100405.00
2023-03-22T11:45:58.022Z,100403.00
2023-03-22T11:48:29.156Z,100395.00
2023-03-22T11:51:07.123Z,100381.00
2023-03-22T11:53:38.823Z,100395.00
2023-03-22T11:56:09.766Z,100394.00
2023-03-22T11:58:42.637Z,100396.00
2023-03-22T12:01:21.606Z,100387.00
2023-03-22T12:03:56.635Z,100377.00
2023-03-22T12:06:29.252Z,100363.00
2023-03-22T12:09:10.655Z,100370.00
2023-03-22T12:11:46.582Z,100378.00
2023-03-22T12:14:29.474Z,100367.00
2023-03-22T12:17:10.768Z,100365.00
2023-03-22T12:19:55.211Z,100367.00
2023-03-22T12:22:32.043Z,100356.00
2023-03-22T12:25:02.656Z,100348.00
2023-03-22T12:27:41.594Z,100352.00
2023-03-22T12:30:21.124Z,100356.00
2023-03-22T12:32:59.713Z,100353.00
2023-03-22T12:35:33.139Z,100337.00
2023-03-22T12:38:16.756Z,100336.00
2023-03-22T12:40:44.371Z,100320.00
2023-03-22T12:43:23.977Z,100330.00
2023-03-22T12:45:59.006Z,100313.00
2023-03-22T12:48:49.017Z,100330.00
2023-03-22T12:51:15.981Z,100310.00
2023-03-22T12:53:54.564Z,100317.00
2023-03-22T12:56:33.247Z,100309.00
2023-03-22T12:59:05.945Z,100305.00
2023-03-22T13:01:52.244Z,100301.00
2023-03-22T13:04:37.322Z,100300.00
2023-03-22T13:07:30.496Z,100299.00
2023-03-22T13:10:00.234Z,100291.00
2023-03-22T13:12:32.117Z,100296.00
2023-03-22T13:15:02.078Z,100302.00
2023-03-22T13:17:28.805Z,100304.00
2023-03-22T13:19:59.734Z,100294.00
2023-03-22T13:22:50.997Z,100310.00
2023-03-22T13:25:19.469Z,100292.00
2023-03-22T13:27:46.185Z,100301.00
2023-03-22T13:30:27.101Z,100291.00
2023-03-22T13:33:11.135Z,100303.00
2023-03-22T13:35:52.746Z,100292.00
2023-03-22T13:38:29.775Z,100298.00
2023-03-22T13:41:21.847Z,100291.00
2023-03-22T13:43:58.118Z,100284.00
2023-03-22T13:46:37.039Z,100283.00
2023-03-22T13:49:04.218Z,100287.00
2023-03-22T13:51:34.208Z,100282.00
2023-03-22T13:54:18.942Z,100295.00
2023-03-22T13:56:59.506Z,100285.00
2023-03-22T13:59:27.294Z,100295.00
2023-03-22T14:02:04.976Z,100280.00
2023-03-22T14:04:45.886Z,100286.00
2023-03-22T14:07:37.253Z,100274.00
2023-03-22T14:10:08.026Z,100269.00
2023-03-22T14:13:02.326Z,100270.00
2023-03-22T14:15:34.063Z,100274.00
2023-03-22T14:18:23.066Z,100269.00
2023-03-22T14:20:57.957Z,100257.00
